KMER

Castle Airport

Atwater, California, USA
KMER 181720Z 1818/1918 VRB02KT 1/4SM FG OVC001 TEMPO 1818/1820 2SM BR BKN004 FM182000 34004KT P6SM SCT250 FM190400 VRB03KT 4SM BR SCT250 FM190900 VRB03KT 1/2SM FG SCT005
Issued Valid From Valid To
Dec-18 @ 17:20 UTC
(6 hours ago)
Dec-18 @ 18:00 UTC
(5 hours ago)
Dec-19 @ 18:00 UTC
(in 19 hours)
Expired Click to View Dec-18 @ 18:00 to Dec-18 @ 20:00
KMER 181720Z 1818/1918 VRB02KT 1/4SM FG OVC001
Wind Visibility Clouds Conditions
Variable at 2 knots 1/4 miles
  • Overcast at 100' AGL
  • Fog
Expired Click to View Dec-18 @ 18:00 to Dec-18 @ 20:00
TEMPO 1818/1820 2SM BR BKN004
Visibility Clouds Conditions
2 miles
  • Broken at 400' AGL
  • Mist
From Dec-18 @ 20:00 to Dec-19 @ 04:00
FM182000 34004KT P6SM SCT250
Wind Visibility Clouds
340° at 4 knots Greater than 6 miles
  • Scattered at 25,000' AGL
From Dec-19 @ 04:00 to Dec-19 @ 09:00
FM190400 VRB03KT 4SM BR SCT250
Wind Visibility Clouds Conditions
Variable at 3 knots 4 miles
  • Scattered at 25,000' AGL
  • Mist
From Dec-19 @ 09:00 to Dec-19 @ 18:00
FM190900 VRB03KT 1/2SM FG SCT005
Wind Visibility Clouds Conditions
Variable at 3 knots 1/2 miles
  • Scattered at 500' AGL
  • Fog
KMER 181720Z 1818/1918 VRB02KT 1/4SM FG OVC001 TEMPO 1818/1820 2SM BR BKN004 FM182000 34004KT P6SM SCT250 FM190400 VRB03KT 4SM BR SCT250 FM190900 VRB03KT 1/2SM FG SCT005
Issued Dec-18 @ 17:20 UTC
(6 hours ago)
Valid From Dec-18 @ 18:00 UTC
(5 hours ago)
Valid To Dec-19 @ 18:00 UTC
(in 19 hours)
Dec-18 @ 18:00 - Dec-18 @ 20:00
Wind Visibility
Variable at 2 knots 1/4 miles
Clouds
  • Overcast at 100' AGL
Conditions
  • Fog
Dec-18 @ 18:00 - Dec-18 @ 20:00
Clouds
  • Broken at 400' AGL
Conditions
  • Mist
From Dec-18 @ 20:00 - Dec-19 @ 04:00
Wind Visibility
340° at 4 knots Greater than 6 miles
Clouds
  • Scattered at 25,000' AGL
From Dec-19 @ 04:00 - Dec-19 @ 09:00
Wind Visibility
Variable at 3 knots 4 miles
Clouds
  • Scattered at 25,000' AGL
Conditions
  • Mist
From Dec-19 @ 09:00 - Dec-19 @ 18:00
Wind Visibility
Variable at 3 knots 1/2 miles
Clouds
  • Scattered at 500' AGL
Conditions
  • Fog